sensor_id;sensor_type;location;lat;lon;timestamp;pressure;altitude;pressure_sealevel;temperature;humidity
21520;BME280;10921;53.614;9.882;2023-04-10T00:02:22;102253.63;;;7.45;90.53
21520;BME280;10921;53.614;9.882;2023-04-10T00:04:49;102279.97;;;7.64;90.30
21520;BME280;10921;53.614;9.882;2023-04-10T00:07:16;102300.03;;;7.69;91.02
21520;BME280;10921;53.614;9.882;2023-04-10T00:09:42;102278.59;;;7.72;91.09
21520;BME280;10921;53.614;9.882;2023-04-10T00:12:09;102280.50;;;7.70;91.42
21520;BME280;10921;53.614;9.882;2023-04-10T00:14:36;102272.19;;;7.76;91.95
21520;BME280;10921;53.614;9.882;2023-04-10T00:17:03;102282.59;;;7.80;92.02
21520;BME280;10921;53.614;9.882;2023-04-10T00:19:29;102245.56;;;7.62;91.83
21520;BME280;10921;53.614;9.882;2023-04-10T00:21:56;102261.47;;;7.78;91.80
21520;BME280;10921;53.614;9.882;2023-04-10T00:24:22;102268.03;;;7.87;92.03
21520;BME280;10921;53.614;9.882;2023-04-10T00:26:49;102225.16;;;7.63;91.52
21520;BME280;10921;53.614;9.882;2023-04-10T00:29:21;102267.88;;;7.90;91.42
21520;BME280;10921;53.614;9.882;2023-04-10T00:31:48;102261.09;;;7.84;91.17
21520;BME280;10921;53.614;9.882;2023-04-10T00:34:15;102259.88;;;7.90;91.16
21520;BME280;10921;53.614;9.882;2023-04-10T00:36:46;102268.72;;;7.90;90.91
21520;BME280;10921;53.614;9.882;2023-04-10T00:39:12;102264.25;;;7.91;90.71
21520;BME280;10921;53.614;9.882;2023-04-10T00:41:39;102259.03;;;7.89;90.73
21520;BME280;10921;53.614;9.882;2023-04-10T00:44:06;102262.53;;;7.90;90.62
21520;BME280;10921;53.614;9.882;2023-04-10T00:46:36;102267.00;;;7.89;90.55
21520;BME280;10921;53.614;9.882;2023-04-10T00:49:03;102259.97;;;7.88;90.30
21520;BME280;10921;53.614;9.882;2023-04-10T00:51:29;102233.53;;;7.71;90.26
21520;BME280;10921;53.614;9.882;2023-04-10T00:53:59;102245.31;;;7.81;91.01
21520;BME280;10921;53.614;9.882;2023-04-10T00:56:27;102249.16;;;7.91;90.60
21520;BME280;10921;53.614;9.882;2023-04-10T00:58:55;102249.16;;;7.91;90.89
21520;BME280;10921;53.614;9.882;2023-04-10T01:01:21;102256.97;;;7.94;91.08
21520;BME280;10921;53.614;9.882;2023-04-10T01:03:48;102237.00;;;7.87;91.37
21520;BME280;10921;53.614;9.882;2023-04-10T01:06:26;102249.47;;;8.01;91.23
21520;BME280;10921;53.614;9.882;2023-04-10T01:17:22;102248.72;;;8.13;91.55
21520;BME280;10921;53.614;9.882;2023-04-10T01:20:09;102251.31;;;8.15;91.16
21520;BME280;10921;53.614;9.882;2023-04-10T01:22:51;102210.81;;;7.95;91.04
21520;BME280;10921;53.614;9.882;2023-04-10T01:25:47;102249.25;;;8.20;91.49
21520;BME280;10921;53.614;9.882;2023-04-10T01:31:47;102253.44;;;8.24;91.31
21520;BME280;10921;53.614;9.882;2023-04-10T01:34:20;102242.69;;;8.25;90.99
21520;BME280;10921;53.614;9.882;2023-04-10T01:36:58;102236.63;;;8.23;91.12
21520;BME280;10921;53.614;9.882;2023-04-10T01:39:26;102244.22;;;8.29;90.40
21520;BME280;10921;53.614;9.882;2023-04-10T01:41:54;102227.41;;;8.29;90.50
21520;BME280;10921;53.614;9.882;2023-04-10T01:44:25;102229.81;;;8.33;90.02
21520;BME280;10921;53.614;9.882;2023-04-10T01:46:54;102237.72;;;8.35;89.94
21520;BME280;10921;53.614;9.882;2023-04-10T01:49:24;102221.94;;;8.32;89.59
21520;BME280;10921;53.614;9.882;2023-04-10T01:51:52;102218.22;;;8.34;89.42
21520;BME280;10921;53.614;9.882;2023-04-10T01:54:26;102217.28;;;8.35;89.40
21520;BME280;10921;53.614;9.882;2023-04-10T01:56:53;102218.91;;;8.38;89.21
21520;BME280;10921;53.614;9.882;2023-04-10T01:59:20;102216.25;;;8.38;89.01
21520;BME280;10921;53.614;9.882;2023-04-10T02:01:47;102201.56;;;8.31;88.92
21520;BME280;10921;53.614;9.882;2023-04-10T02:04:13;102173.84;;;8.21;88.81
21520;BME280;10921;53.614;9.882;2023-04-10T02:09:24;102196.38;;;8.43;88.94
21520;BME280;10921;53.614;9.882;2023-04-10T02:12:00;102198.41;;;8.40;88.18
21520;BME280;10921;53.614;9.882;2023-04-10T02:14:31;102194.13;;;8.37;88.24
21520;BME280;10921;53.614;9.882;2023-04-10T02:16:58;102207.97;;;8.42;87.96
21520;BME280;10921;53.614;9.882;2023-04-10T02:19:26;102202.66;;;8.42;88.27
21520;BME280;10921;53.614;9.882;2023-04-10T02:21:53;102205.31;;;8.42;87.50
21520;BME280;10921;53.614;9.882;2023-04-10T02:24:22;102199.13;;;8.42;87.46
21520;BME280;10921;53.614;9.882;2023-04-10T02:26:52;102161.22;;;8.24;87.30
21520;BME280;10921;53.614;9.882;2023-04-10T02:29:18;102170.88;;;8.25;87.13
21520;BME280;10921;53.614;9.882;2023-04-10T02:31:45;102194.22;;;8.36;86.84
21520;BME280;10921;53.614;9.882;2023-04-10T02:34:12;102190.00;;;8.32;86.30
21520;BME280;10921;53.614;9.882;2023-04-10T02:36:39;102172.88;;;8.22;86.41
21520;BME280;10921;53.614;9.882;2023-04-10T02:39:06;102190.25;;;8.27;86.63
21520;BME280;10921;53.614;9.882;2023-04-10T02:41:33;102163.09;;;8.08;86.38
21520;BME280;10921;53.614;9.882;2023-04-10T02:44:00;102175.56;;;8.22;86.70
21520;BME280;10921;53.614;9.882;2023-04-10T02:46:27;102146.47;;;8.04;86.67
21520;BME280;10921;53.614;9.882;2023-04-10T02:48:53;102174.19;;;8.15;87.23
21520;BME280;10921;53.614;9.882;2023-04-10T02:51:20;102168.69;;;8.18;87.00
21520;BME280;10921;53.614;9.882;2023-04-10T02:53:47;102168.69;;;8.18;87.31
21520;BME280;10921;53.614;9.882;2023-04-10T02:56:13;102144.84;;;8.02;86.79
21520;BME280;10921;53.614;9.882;2023-04-10T02:58:40;102162.72;;;8.14;87.37
21520;BME280;10921;53.614;9.882;2023-04-10T03:01:11;102161.19;;;8.10;87.14
21520;BME280;10921;53.614;9.882;2023-04-10T03:03:37;102154.06;;;8.10;87.35
21520;BME280;10921;53.614;9.882;2023-04-10T03:06:04;102151.41;;;8.10;86.72
21520;BME280;10921;53.614;9.882;2023-04-10T03:08:33;102142.19;;;8.02;86.65
21520;BME280;10921;53.614;9.882;2023-04-10T03:10:59;102136.09;;;8.00;86.60
21520;BME280;10921;53.614;9.882;2023-04-10T03:13:26;102148.09;;;8.07;86.38
21520;BME280;10921;53.614;9.882;2023-04-10T03:15:52;102143.81;;;8.04;86.26
21520;BME280;10921;53.614;9.882;2023-04-10T03:18:19;102143.13;;;8.01;86.70
21520;BME280;10921;53.614;9.882;2023-04-10T03:20:46;102133.72;;;7.95;86.43
21520;BME280;10921;53.614;9.882;2023-04-10T03:23:12;102137.25;;;7.96;86.70
21520;BME280;10921;53.614;9.882;2023-04-10T03:25:39;102142.56;;;7.96;86.50
21520;BME280;10921;53.614;9.882;2023-04-10T03:28:06;102135.06;;;7.88;85.96
21520;BME280;10921;53.614;9.882;2023-04-10T03:30:33;102129.16;;;7.83;86.21
21520;BME280;10921;53.614;9.882;2023-04-10T03:33:02;102133.44;;;7.86;86.20
21520;BME280;10921;53.614;9.882;2023-04-10T03:35:29;102092.31;;;7.63;86.52
21520;BME280;10921;53.614;9.882;2023-04-10T03:37:55;102114.72;;;7.73;86.54
21520;BME280;10921;53.614;9.882;2023-04-10T03:40:22;102128.59;;;7.78;86.88
21520;BME280;10921;53.614;9.882;2023-04-10T03:42:48;102123.38;;;7.76;87.17
21520;BME280;10921;53.614;9.882;2023-04-10T03:45:15;102041.22;;;7.29;86.85
21520;BME280;10921;53.614;9.882;2023-04-10T03:47:42;102087.47;;;7.55;86.69
21520;BME280;10921;53.614;9.882;2023-04-10T03:50:09;102092.19;;;7.64;87.14
21520;BME280;10921;53.614;9.882;2023-04-10T03:52:35;102122.59;;;7.74;86.90
21520;BME280;10921;53.614;9.882;2023-04-10T03:55:02;102069.44;;;7.46;86.89
21520;BME280;10921;53.614;9.882;2023-04-10T03:57:28;102118.91;;;7.77;86.45
21520;BME280;10921;53.614;9.882;2023-04-10T03:59:55;102116.25;;;7.77;86.69
21520;BME280;10921;53.614;9.882;2023-04-10T04:02:22;102082.22;;;7.54;86.19
21520;BME280;10921;53.614;9.882;2023-04-10T04:04:48;102111.13;;;7.74;86.10
21520;BME280;10921;53.614;9.882;2023-04-10T04:07:15;102111.38;;;7.69;86.52
21520;BME280;10921;53.614;9.882;2023-04-10T04:09:42;102113.97;;;7.71;86.67
21520;BME280;10921;53.614;9.882;2023-04-10T04:12:08;102106.25;;;7.66;86.74
21520;BME280;10921;53.614;9.882;2023-04-10T04:14:35;102110.63;;;7.67;86.85
21520;BME280;10921;53.614;9.882;2023-04-10T04:17:02;102110.72;;;7.66;86.68
21520;BME280;10921;53.614;9.882;2023-04-10T04:19:28;102094.66;;;7.53;87.17
21520;BME280;10921;53.614;9.882;2023-04-10T04:21:55;102114.53;;;7.62;86.96
21520;BME280;10921;53.614;9.882;2023-04-10T04:24:21;102101.50;;;7.57;87.01
21520;BME280;10921;53.614;9.882;2023-04-10T04:26:48;102086.13;;;7.48;87.08
21520;BME280;10921;53.614;9.882;2023-04-10T04:29:14;102090.28;;;7.52;86.70
21520;BME280;10921;53.614;9.882;2023-04-10T04:31:41;102106.06;;;7.55;86.47
21520;BME280;10921;53.614;9.882;2023-04-10T04:34:08;102101.00;;;7.51;86.65
21520;BME280;10921;53.614;9.882;2023-04-10T04:36:34;102041.63;;;7.07;86.27
21520;BME280;10921;53.614;9.882;2023-04-10T04:39:01;102095.41;;;7.41;86.58
21520;BME280;10921;53.614;9.882;2023-04-10T04:41:27;102117.31;;;7.45;86.54
21520;BME280;10921;53.614;9.882;2023-04-10T04:43:56;102111.31;;;7.41;86.74
21520;BME280;10921;53.614;9.882;2023-04-10T04:46:22;102085.75;;;7.24;86.90
21520;BME280;10921;53.614;9.882;2023-04-10T04:48:49;102051.22;;;7.10;87.12
21520;BME280;10921;53.614;9.882;2023-04-10T04:51:15;102110.66;;;7.37;86.95
21520;BME280;10921;53.614;9.882;2023-04-10T04:53:42;102066.19;;;7.11;87.12
21520;BME280;10921;53.614;9.882;2023-04-10T04:56:08;102122.22;;;7.36;87.42
21520;BME280;10921;53.614;9.882;2023-04-10T04:58:35;102098.94;;;7.26;87.35
21520;BME280;10921;53.614;9.882;2023-04-10T05:01:02;102105.78;;;7.30;87.45
21520;BME280;10921;53.614;9.882;2023-04-10T05:03:28;102111.66;;;7.35;87.50
21520;BME280;10921;53.614;9.882;2023-04-10T05:05:55;102111.31;;;7.41;87.47
21520;BME280;10921;53.614;9.882;2023-04-10T05:08:22;102115.59;;;7.44;87.24
21520;BME280;10921;53.614;9.882;2023-04-10T05:10:48;102094.16;;;7.32;87.28
21520;BME280;10921;53.614;9.882;2023-04-10T05:13:15;102077.44;;;7.30;87.21
21520;BME280;10921;53.614;9.882;2023-04-10T05:15:43;102108.19;;;7.49;87.78
21520;BME280;10921;53.614;9.882;2023-04-10T05:18:10;102110.41;;;7.56;88.42
21520;BME280;10921;53.614;9.882;2023-04-10T05:20:37;102063.97;;;7.33;88.35
21520;BME280;10921;53.614;9.882;2023-04-10T05:23:04;102103.69;;;7.65;88.64
21520;BME280;10921;53.614;9.882;2023-04-10T05:25:30;102111.88;;;7.76;88.29
21520;BME280;10921;53.614;9.882;2023-04-10T05:27:57;102078.75;;;7.67;88.80
21520;BME280;10921;53.614;9.882;2023-04-10T05:30:23;102112.59;;;7.94;88.92
21520;BME280;10921;53.614;9.882;2023-04-10T05:32:50;102123.41;;;8.05;88.93
21520;BME280;10921;53.614;9.882;2023-04-10T05:35:17;102109.53;;;8.14;88.71
21520;BME280;10921;53.614;9.882;2023-04-10T05:37:43;102111.53;;;8.25;88.10
21520;BME280;10921;53.614;9.882;2023-04-10T05:40:10;102100.50;;;8.31;87.95
21520;BME280;10921;53.614;9.882;2023-04-10T05:42:36;102080.88;;;8.33;87.20
21520;BME280;10921;53.614;9.882;2023-04-10T05:45:03;102098.03;;;8.56;86.39
21520;BME280;10921;53.614;9.882;2023-04-10T05:47:30;102068.50;;;8.46;85.81
21520;BME280;10921;53.614;9.882;2023-04-10T05:49:57;102104.53;;;8.79;84.76
21520;BME280;10921;53.614;9.882;2023-04-10T05:52:23;102105.75;;;8.88;84.13
21520;BME280;10921;53.614;9.882;2023-04-10T05:54:50;102108.66;;;8.97;83.50
21520;BME280;10921;53.614;9.882;2023-04-10T05:57:17;102087.03;;;9.02;83.02
21520;BME280;10921;53.614;9.882;2023-04-10T05:59:43;102085.91;;;9.06;81.87
21520;BME280;10921;53.614;9.882;2023-04-10T06:02:10;102080.56;;;9.06;80.62
21520;BME280;10921;53.614;9.882;2023-04-10T06:04:37;102097.91;;;9.26;80.67
21520;BME280;10921;53.614;9.882;2023-04-10T06:07:04;102088.84;;;9.28;79.79
21520;BME280;10921;53.614;9.882;2023-04-10T06:09:30;102090.03;;;9.37;79.50
21520;BME280;10921;53.614;9.882;2023-04-10T06:11:57;102086.31;;;9.39;78.86
21520;BME280;10921;53.614;9.882;2023-04-10T06:14:23;102077.81;;;9.47;78.31
21520;BME280;10921;53.614;9.882;2023-04-10T06:16:50;102078.22;;;9.53;78.11
21520;BME280;10921;53.614;9.882;2023-04-10T06:19:16;102074.41;;;9.58;77.13
21520;BME280;10921;53.614;9.882;2023-04-10T06:21:43;102069.84;;;9.60;76.19
21520;BME280;10921;53.614;9.882;2023-04-10T06:24:10;102065.00;;;9.65;75.90
21520;BME280;10921;53.614;9.882;2023-04-10T06:26:38;102065.16;;;9.76;75.77
21520;BME280;10921;53.614;9.882;2023-04-10T06:29:05;102016.09;;;9.53;75.02
21520;BME280;10921;53.614;9.882;2023-04-10T06:31:32;102038.06;;;9.69;75.10
21520;BME280;10921;53.614;9.882;2023-04-10T06:33:59;101999.59;;;9.61;74.13
21520;BME280;10921;53.614;9.882;2023-04-10T06:36:26;102034.22;;;9.86;73.62
21520;BME280;10921;53.614;9.882;2023-04-10T06:38:52;101987.53;;;9.68;73.54
21520;BME280;10921;53.614;9.882;2023-04-10T06:41:19;102049.22;;;10.12;73.67
21520;BME280;10921;53.614;9.882;2023-04-10T06:43:46;102029.78;;;10.10;73.51
21520;BME280;10921;53.614;9.882;2023-04-10T06:46:13;102048.78;;;10.31;72.77
21520;BME280;10921;53.614;9.882;2023-04-10T06:48:41;102052.59;;;10.40;71.83
21520;BME280;10921;53.614;9.882;2023-04-10T06:51:07;102051.63;;;10.53;72.02
21520;BME280;10921;53.614;9.882;2023-04-10T06:53:34;102049.00;;;10.65;71.03
21520;BME280;10921;53.614;9.882;2023-04-10T06:56:01;102048.09;;;10.77;70.30
21520;BME280;10921;53.614;9.882;2023-04-10T06:58:29;102050.06;;;10.86;69.20
21520;BME280;10921;53.614;9.882;2023-04-10T07:00:55;102048.44;;;10.96;69.53
21520;BME280;10921;53.614;9.882;2023-04-10T07:03:23;102052.75;;;11.10;68.60
21520;BME280;10921;53.614;9.882;2023-04-10T07:05:49;102047.66;;;11.18;68.29
21520;BME280;10921;53.614;9.882;2023-04-10T07:08:16;102015.56;;;11.07;68.52
21520;BME280;10921;53.614;9.882;2023-04-10T07:10:43;102047.47;;;11.32;67.79
21520;BME280;10921;53.614;9.882;2023-04-10T07:13:09;102041.03;;;11.35;67.98
21520;BME280;10921;53.614;9.882;2023-04-10T07:15:36;102039.59;;;11.42;67.98
21520;BME280;10921;53.614;9.882;2023-04-10T07:18:02;102031.72;;;11.40;67.53
21520;BME280;10921;53.614;9.882;2023-04-10T07:20:29;102039.84;;;11.50;67.21
21520;BME280;10921;53.614;9.882;2023-04-10T07:22:56;102048.16;;;11.58;66.58
21520;BME280;10921;53.614;9.882;2023-04-10T07:25:22;102041.34;;;11.65;66.23
21520;BME280;10921;53.614;9.882;2023-04-10T07:27:49;102041.34;;;11.65;65.40
21520;BME280;10921;53.614;9.882;2023-04-10T07:30:15;102027.84;;;11.67;65.83
21520;BME280;10921;53.614;9.882;2023-04-10T07:32:42;102025.81;;;11.70;66.37
21520;BME280;10921;53.614;9.882;2023-04-10T07:35:09;102030.31;;;11.81;66.04
21520;BME280;10921;53.614;9.882;2023-04-10T07:37:35;102004.91;;;11.75;66.40
21520;BME280;10921;53.614;9.882;2023-04-10T07:40:02;102015.50;;;11.88;64.21
21520;BME280;10921;53.614;9.882;2023-04-10T07:42:29;102023.41;;;12.01;64.11
21520;BME280;10921;53.614;9.882;2023-04-10T07:44:56;101982.44;;;11.89;64.02
21520;BME280;10921;53.614;9.882;2023-04-10T07:47:22;102004.53;;;12.13;64.37
21520;BME280;10921;53.614;9.882;2023-04-10T07:49:49;102018.75;;;12.36;64.22
21520;BME280;10921;53.614;9.882;2023-04-10T07:52:16;102006.69;;;12.42;62.94
21520;BME280;10921;53.614;9.882;2023-04-10T07:54:42;102013.34;;;12.58;62.80
21520;BME280;10921;53.614;9.882;2023-04-10T07:57:09;102023.16;;;12.69;62.10
21520;BME280;10921;53.614;9.882;2023-04-10T07:59:35;102015.97;;;12.81;61.99
21520;BME280;10921;53.614;9.882;2023-04-10T08:02:02;102009.09;;;12.88;61.95
21520;BME280;10921;53.614;9.882;2023-04-10T08:04:28;101965.44;;;12.76;61.40
21520;BME280;10921;53.614;9.882;2023-04-10T08:06:55;102010.41;;;13.14;60.81
21520;BME280;10921;53.614;9.882;2023-04-10T08:09:22;101998.63;;;13.17;60.13
21520;BME280;10921;53.614;9.882;2023-04-10T08:11:48;101999.16;;;13.31;58.95
21520;BME280;10921;53.614;9.882;2023-04-10T08:14:15;101996.13;;;13.46;59.08
21520;BME280;10921;53.614;9.882;2023-04-10T08:16:43;101986.00;;;13.49;57.82
21520;BME280;10921;53.614;9.882;2023-04-10T08:19:10;101965.66;;;13.47;58.45
21520;BME280;10921;53.614;9.882;2023-04-10T08:21:37;101987.19;;;13.87;59.04
21520;BME280;10921;53.614;9.882;2023-04-10T08:24:03;101988.25;;;14.05;57.97
21520;BME280;10921;53.614;9.882;2023-04-10T08:26:30;101995.19;;;14.17;57.03
21520;BME280;10921;53.614;9.882;2023-04-10T08:28:58;101983.34;;;14.29;55.74
21520;BME280;10921;53.614;9.882;2023-04-10T08:31:26;101984.09;;;14.41;56.46
21520;BME280;10921;53.614;9.882;2023-04-10T08:33:54;101984.81;;;14.53;56.04
21520;BME280;10921;53.614;9.882;2023-04-10T08:36:21;101971.56;;;14.61;55.48
21520;BME280;10921;53.614;9.882;2023-04-10T08:38:47;101937.63;;;14.50;55.38
21520;BME280;10921;53.614;9.882;2023-04-10T08:41:16;101976.94;;;14.80;55.34
21520;BME280;10921;53.614;9.882;2023-04-10T08:43:43;101971.84;;;14.87;54.38
21520;BME280;10921;53.614;9.882;2023-04-10T08:46:14;101966.31;;;14.88;54.63
21520;BME280;10921;53.614;9.882;2023-04-10T08:49:03;101953.00;;;15.06;53.83
21520;BME280;10921;53.614;9.882;2023-04-10T08:51:51;101952.00;;;15.17;53.76
21520;BME280;10921;53.614;9.882;2023-04-10T08:54:32;101951.69;;;15.29;54.43
21520;BME280;10921;53.614;9.882;2023-04-10T08:56:59;101958.34;;;15.35;52.79
21520;BME280;10921;53.614;9.882;2023-04-10T08:59:27;101936.53;;;15.38;52.09
21520;BME280;10921;53.614;9.882;2023-04-10T09:01:56;101946.94;;;15.60;52.94
21520;BME280;10921;53.614;9.882;2023-04-10T09:04:24;101944.31;;;15.78;52.47
21520;BME280;10921;53.614;9.882;2023-04-10T09:06:52;101941.53;;;15.97;53.36
21520;BME280;10921;53.614;9.882;2023-04-10T09:09:18;101928.81;;;16.17;52.66
21520;BME280;10921;53.614;9.882;2023-04-10T09:14:22;101926.63;;;16.66;52.15
21520;BME280;10921;53.614;9.882;2023-04-10T09:16:50;101925.53;;;16.94;49.10
21520;BME280;10921;53.614;9.882;2023-04-10T09:19:32;101914.16;;;17.34;50.15
21520;BME280;10921;53.614;9.882;2023-04-10T09:21:59;101904.50;;;17.57;47.11
21520;BME280;10921;53.614;9.882;2023-04-10T09:24:25;101904.19;;;18.03;47.42
21520;BME280;10921;53.614;9.882;2023-04-10T09:26:52;101899.56;;;18.45;46.47
21520;BME280;10921;53.614;9.882;2023-04-10T09:29:19;101903.34;;;18.77;44.43
21520;BME280;10921;53.614;9.882;2023-04-10T09:31:46;101886.56;;;19.06;42.11
21520;BME280;10921;53.614;9.882;2023-04-10T09:34:15;101876.16;;;19.42;42.55
21520;BME280;10921;53.614;9.882;2023-04-10T09:36:44;101880.59;;;19.82;42.63
21520;BME280;10921;53.614;9.882;2023-04-10T09:39:18;101863.34;;;20.06;40.17
21520;BME280;10921;53.614;9.882;2023-04-10T09:41:52;101839.44;;;20.40;41.36
21520;BME280;10921;53.614;9.882;2023-04-10T09:44:34;101849.63;;;20.76;39.37
21520;BME280;10921;53.614;9.882;2023-04-10T09:49:56;101823.75;;;21.02;39.31
21520;BME280;10921;53.614;9.882;2023-04-10T09:52:55;101819.25;;;21.39;38.83
21520;BME280;10921;53.614;9.882;2023-04-10T09:55:40;101822.22;;;21.73;39.74
21520;BME280;10921;53.614;9.882;2023-04-10T09:58:19;101759.97;;;21.21;37.58
21520;BME280;10921;53.614;9.882;2023-04-10T10:00:48;101814.66;;;21.69;36.61
21520;BME280;10921;53.614;9.882;2023-04-10T10:03:16;101794.38;;;21.71;37.54
21520;BME280;10921;53.614;9.882;2023-04-10T10:05:48;101785.81;;;21.89;37.41
21520;BME280;10921;53.614;9.882;2023-04-10T10:08:15;101773.22;;;21.82;35.13
21520;BME280;10921;53.614;9.882;2023-04-10T10:10:47;101803.66;;;22.13;35.07
21520;BME280;10921;53.614;9.882;2023-04-10T10:13:23;101777.44;;;22.05;33.86
21520;BME280;10921;53.614;9.882;2023-04-10T10:15:59;101784.94;;;22.25;34.07
21520;BME280;10921;53.614;9.882;2023-04-10T10:20:56;101775.41;;;21.93;32.49
21520;BME280;10921;53.614;9.882;2023-04-10T10:23:23;101761.06;;;21.99;31.42
21520;BME280;10921;53.614;9.882;2023-04-10T10:25:51;101772.84;;;22.06;32.51
21520;BME280;10921;53.614;9.882;2023-04-10T10:28:19;101764.34;;;22.16;33.53
21520;BME280;10921;53.614;9.882;2023-04-10T10:30:47;101752.91;;;21.99;33.32
21520;BME280;10921;53.614;9.882;2023-04-10T10:33:16;101742.47;;;22.24;32.88
21520;BME280;10921;53.614;9.882;2023-04-10T10:35:43;101737.59;;;22.13;31.50
21520;BME280;10921;53.614;9.882;2023-04-10T10:38:10;101738.34;;;22.28;32.92
21520;BME280;10921;53.614;9.882;2023-04-10T10:43:58;101735.25;;;22.37;30.92
21520;BME280;10921;53.614;9.882;2023-04-10T10:46:50;101720.81;;;22.37;31.58
21520;BME280;10921;53.614;9.882;2023-04-10T10:49:17;101687.56;;;22.07;32.02
21520;BME280;10921;53.614;9.882;2023-04-10T10:51:49;101711.44;;;22.12;31.41
21520;BME280;10921;53.614;9.882;2023-04-10T10:54:32;101690.34;;;22.14;32.62
21520;BME280;10921;53.614;9.882;2023-04-10T10:57:00;101697.25;;;21.95;30.92
21520;BME280;10921;53.614;9.882;2023-04-10T11:04:44;101678.81;;;21.90;31.85
21520;BME280;10921;53.614;9.882;2023-04-10T11:07:12;101668.41;;;21.72;30.29
21520;BME280;10921;53.614;9.882;2023-04-10T11:09:54;101669.94;;;22.03;31.25
21520;BME280;10921;53.614;9.882;2023-04-10T11:12:23;101648.41;;;22.01;30.28
21520;BME280;10921;53.614;9.882;2023-04-10T11:14:58;101654.13;;;22.41;31.13
21520;BME280;10921;53.614;9.882;2023-04-10T11:20:15;101640.09;;;22.72;30.72
21520;BME280;10921;53.614;9.882;2023-04-10T11:23:09;101634.13;;;22.96;30.06
21520;BME280;10921;53.614;9.882;2023-04-10T11:25:52;101640.41;;;22.97;28.54
21520;BME280;10921;53.614;9.882;2023-04-10T11:28:40;101622.66;;;23.01;28.73
21520;BME280;10921;53.614;9.882;2023-04-10T11:31:21;101599.22;;;23.06;28.57
21520;BME280;10921;53.614;9.882;2023-04-10T11:36:25;101611.81;;;23.27;28.94
21520;BME280;10921;53.614;9.882;2023-04-10T11:39:03;101602.81;;;23.40;28.32
21520;BME280;10921;53.614;9.882;2023-04-10T11:41:41;101605.38;;;23.48;27.97
21520;BME280;10921;53.614;9.882;2023-04-10T11:44:10;101589.00;;;23.41;26.81
21520;BME280;10921;53.614;9.882;2023-04-10T11:46:37;101565.09;;;23.17;26.89
21520;BME280;10921;53.614;9.882;2023-04-10T11:49:06;101603.03;;;23.38;27.55
21520;BME280;10921;53.614;9.882;2023-04-10T11:51:35;101589.66;;;23.57;26.73
21520;BME280;10921;53.614;9.882;2023-04-10T11:54:12;101593.16;;;23.24;26.81
21520;BME280;10921;53.614;9.882;2023-04-10T11:56:41;101581.88;;;23.21;26.72
21520;BME280;10921;53.614;9.882;2023-04-10T11:59:09;101574.31;;;23.16;28.00
21520;BME280;10921;53.614;9.882;2023-04-10T12:01:41;101564.50;;;23.22;27.35
21520;BME280;10921;53.614;9.882;2023-04-10T12:06:46;101555.28;;;23.36;27.73
21520;BME280;10921;53.614;9.882;2023-04-10T12:09:14;101542.28;;;23.44;27.04
21520;BME280;10921;53.614;9.882;2023-04-10T12:14:16;101543.56;;;23.48;26.72
21520;BME280;10921;53.614;9.882;2023-04-10T12:16:43;101522.81;;;23.47;26.85
21520;BME280;10921;53.614;9.882;2023-04-10T12:19:11;101539.78;;;23.56;26.40
21520;BME280;10921;53.614;9.882;2023-04-10T12:21:39;101535.84;;;23.52;26.28
21520;BME280;10921;53.614;9.882;2023-04-10T12:24:08;101516.34;;;23.62;25.72
21520;BME280;10921;53.614;9.882;2023-04-10T12:26:35;101524.28;;;23.30;26.20
21520;BME280;10921;53.614;9.882;2023-04-10T12:29:02;101503.50;;;22.90;26.12
21520;BME280;10921;53.614;9.882;2023-04-10T12:31:31;101520.91;;;23.02;26.37
21520;BME280;10921;53.614;9.882;2023-04-10T12:33:58;101522.50;;;22.76;26.58
21520;BME280;10921;53.614;9.882;2023-04-10T12:36:27;101508.41;;;22.66;26.55
21520;BME280;10921;53.614;9.882;2023-04-10T12:38:56;101497.69;;;22.45;26.92
21520;BME280;10921;53.614;9.882;2023-04-10T12:41:25;101508.13;;;22.41;26.72
21520;BME280;10921;53.614;9.882;2023-04-10T12:43:53;101506.59;;;22.26;26.44
21520;BME280;10921;53.614;9.882;2023-04-10T12:46:31;101507.47;;;22.33;27.33
21520;BME280;10921;53.614;9.882;2023-04-10T12:49:11;101492.41;;;22.37;26.97
21520;BME280;10921;53.614;9.882;2023-04-10T12:51:51;101445.75;;;22.33;26.48
21520;BME280;10921;53.614;9.882;2023-04-10T12:54:28;101490.59;;;22.51;26.66
21520;BME280;10921;53.614;9.882;2023-04-10T12:56:54;101489.75;;;22.43;26.98
21520;BME280;10921;53.614;9.882;2023-04-10T12:59:21;101474.25;;;22.51;27.50
21520;BME280;10921;53.614;9.882;2023-04-10T13:01:49;101482.84;;;22.54;26.97
21520;BME280;10921;53.614;9.882;2023-04-10T13:04:15;101471.19;;;22.60;26.80
21520;BME280;10921;53.614;9.882;2023-04-10T13:06:44;101459.44;;;22.53;26.41
21520;BME280;10921;53.614;9.882;2023-04-10T13:09:12;101464.25;;;22.64;26.55
21520;BME280;10921;53.614;9.882;2023-04-10T13:11:40;101463.22;;;22.65;26.40
21520;BME280;10921;53.614;9.882;2023-04-10T13:14:07;101453.97;;;22.46;27.05
21520;BME280;10921;53.614;9.882;2023-04-10T13:16:34;101451.00;;;22.35;26.76
21520;BME280;10921;53.614;9.882;2023-04-10T13:19:01;101439.91;;;22.30;27.69
21520;BME280;10921;53.614;9.882;2023-04-10T13:21:28;101428.72;;;22.05;26.86
21520;BME280;10921;53.614;9.882;2023-04-10T13:23:55;101433.56;;;22.16;27.14
21520;BME280;10921;53.614;9.882;2023-04-10T13:26:22;101431.28;;;22.13;27.43
21520;BME280;10921;53.614;9.882;2023-04-10T13:28:49;101422.94;;;21.87;27.41
21520;BME280;10921;53.614;9.882;2023-04-10T13:31:15;101417.97;;;21.90;27.50
21520;BME280;10921;53.614;9.882;2023-04-10T13:33:46;101357.63;;;21.54;28.47
21520;BME280;10921;53.614;9.882;2023-04-10T13:36:13;101398.25;;;21.75;28.87
21520;BME280;10921;53.614;9.882;2023-04-10T13:38:40;101394.44;;;21.69;28.30
21520;BME280;10921;53.614;9.882;2023-04-10T13:41:07;101372.84;;;21.48;28.21
21520;BME280;10921;53.614;9.882;2023-04-10T13:43:34;101364.88;;;21.47;29.05
21520;BME280;10921;53.614;9.882;2023-04-10T13:46:00;101367.72;;;21.66;28.71